EFPO

Pori Airport

Pori, Finland
METAR EFPO 172220Z AUTO 17007KT 140V200 9999 -RA FEW020/// BKN081/// 19/16 Q1012
Observed Flight Rules
Aug-17 @ 22:20 UTC (17 minutes ago) Visual Flight Rules
Wind Visibility Clouds Conditions
170° at 7 knots 10,000+ meters
  • Few at 2,000' AGL
  • Broken at 8,100' AGL
  • Light Rain
Temperatures Readings
Current 19°C / 66°F
Dewpoint 16°C / 61°F
Humidity 83%
Altimeter 29.88" Hg
Pressure 1012 hPa
Elevation 17
METAR EFPO 172220Z AUTO 17007KT 140V200 9999 -RA FEW020/// BKN081/// 19/16 Q1012
Observed Flight Rules
Aug-17 @ 22:20 UTC
(17 minutes ago)
VFR
Wind Visibility
170° at 7 knots 10,000+ meters
Clouds
  • Few at 2,000' AGL
  • Broken at 8,100' AGL
Conditions
  • Light Rain
Temperature Dewpoint
19°C / 66°F 16°C / 61°F
Humidity Altimeter Pressure
83% 29.88" Hg 1012 hPa